sensor_id;sensor_type;location;lat;lon;timestamp;temperature;humidity
51011;DHT22;37038;50.182;8.624;2023-03-23T00:00:14;14.20;91.80
51011;DHT22;37038;50.182;8.624;2023-03-23T00:03:11;14.20;91.90
51011;DHT22;37038;50.182;8.624;2023-03-23T00:06:01;14.20;92.10
51011;DHT22;37038;50.182;8.624;2023-03-23T00:08:53;14.20;92.50
51011;DHT22;37038;50.182;8.624;2023-03-23T00:11:48;14.20;92.50
51011;DHT22;37038;50.182;8.624;2023-03-23T00:14:36;14.10;92.70
51011;DHT22;37038;50.182;8.624;2023-03-23T00:17:28;14.10;93.10
51011;DHT22;37038;50.182;8.624;2023-03-23T00:20:15;14.00;93.40
51011;DHT22;37038;50.182;8.624;2023-03-23T00:23:02;14.00;93.60
51011;DHT22;37038;50.182;8.624;2023-03-23T00:25:55;14.00;93.70
51011;DHT22;37038;50.182;8.624;2023-03-23T00:28:43;14.00;93.70
51011;DHT22;37038;50.182;8.624;2023-03-23T00:31:32;14.00;94.00
51011;DHT22;37038;50.182;8.624;2023-03-23T00:34:22;14.00;94.10
51011;DHT22;37038;50.182;8.624;2023-03-23T00:37:10;13.90;94.30
51011;DHT22;37038;50.182;8.624;2023-03-23T00:39:57;13.90;94.60
51011;DHT22;37038;50.182;8.624;2023-03-23T00:42:49;13.90;95.00
51011;DHT22;37038;50.182;8.624;2023-03-23T00:45:36;13.90;95.20
51011;DHT22;37038;50.182;8.624;2023-03-23T00:48:24;13.90;95.40
51011;DHT22;37038;50.182;8.624;2023-03-23T00:51:11;13.80;95.50
51011;DHT22;37038;50.182;8.624;2023-03-23T00:53:58;13.80;95.70
51011;DHT22;37038;50.182;8.624;2023-03-23T00:56:45;13.70;95.90
51011;DHT22;37038;50.182;8.624;2023-03-23T00:59:35;13.70;95.80
51011;DHT22;37038;50.182;8.624;2023-03-23T01:02:21;13.80;96.10
51011;DHT22;37038;50.182;8.624;2023-03-23T01:05:11;13.80;96.50
51011;DHT22;37038;50.182;8.624;2023-03-23T01:07:59;13.80;96.80
51011;DHT22;37038;50.182;8.624;2023-03-23T01:11:00;13.70;96.80
51011;DHT22;37038;50.182;8.624;2023-03-23T01:13:50;13.70;97.60
51011;DHT22;37038;50.182;8.624;2023-03-23T01:16:37;13.70;98.10
51011;DHT22;37038;50.182;8.624;2023-03-23T01:19:24;13.50;98.60
51011;DHT22;37038;50.182;8.624;2023-03-23T01:22:11;13.50;99.20
51011;DHT22;37038;50.182;8.624;2023-03-23T01:24:57;13.30;99.50
51011;DHT22;37038;50.182;8.624;2023-03-23T01:27:44;13.20;99.90
51011;DHT22;37038;50.182;8.624;2023-03-23T01:30:31;13.10;99.90
51011;DHT22;37038;50.182;8.624;2023-03-23T01:33:18;13.00;99.90
51011;DHT22;37038;50.182;8.624;2023-03-23T01:36:16;13.00;99.90
51011;DHT22;37038;50.182;8.624;2023-03-23T01:39:05;13.00;99.90
51011;DHT22;37038;50.182;8.624;2023-03-23T01:41:52;12.90;99.90
51011;DHT22;37038;50.182;8.624;2023-03-23T01:47:26;12.80;99.90
51011;DHT22;37038;50.182;8.624;2023-03-23T01:50:12;12.80;99.90
51011;DHT22;37038;50.182;8.624;2023-03-23T01:53:01;12.80;99.90
51011;DHT22;37038;50.182;8.624;2023-03-23T01:55:52;12.80;99.90
51011;DHT22;37038;50.182;8.624;2023-03-23T01:58:40;12.80;99.90
51011;DHT22;37038;50.182;8.624;2023-03-23T02:01:28;12.80;99.90
51011;DHT22;37038;50.182;8.624;2023-03-23T02:04:16;12.80;99.90
51011;DHT22;37038;50.182;8.624;2023-03-23T02:07:03;12.80;99.90
51011;DHT22;37038;50.182;8.624;2023-03-23T02:09:51;12.80;99.90
51011;DHT22;37038;50.182;8.624;2023-03-23T02:12:38;12.90;99.90
51011;DHT22;37038;50.182;8.624;2023-03-23T02:15:39;12.80;99.90
51011;DHT22;37038;50.182;8.624;2023-03-23T02:18:42;12.90;99.90
51011;DHT22;37038;50.182;8.624;2023-03-23T02:25:05;12.90;99.90
51011;DHT22;37038;50.182;8.624;2023-03-23T02:34:50;12.90;99.90
51011;DHT22;37038;50.182;8.624;2023-03-23T02:37:58;12.90;99.90
51011;DHT22;37038;50.182;8.624;2023-03-23T02:40:50;12.80;99.90
51011;DHT22;37038;50.182;8.624;2023-03-23T02:43:41;12.90;99.90
51011;DHT22;37038;50.182;8.624;2023-03-23T02:46:31;13.00;99.90
51011;DHT22;37038;50.182;8.624;2023-03-23T02:49:19;13.10;99.90
51011;DHT22;37038;50.182;8.624;2023-03-23T02:52:17;13.10;99.90
51011;DHT22;37038;50.182;8.624;2023-03-23T02:55:07;12.80;99.90
51011;DHT22;37038;50.182;8.624;2023-03-23T02:57:57;12.60;99.90
51011;DHT22;37038;50.182;8.624;2023-03-23T03:00:48;12.50;99.90
51011;DHT22;37038;50.182;8.624;2023-03-23T03:03:36;12.30;99.90
51011;DHT22;37038;50.182;8.624;2023-03-23T03:06:33;12.20;99.90
51011;DHT22;37038;50.182;8.624;2023-03-23T03:11:18;12.20;99.90
51011;DHT22;37038;50.182;8.624;2023-03-23T03:13:50;12.20;99.90
51011;DHT22;37038;50.182;8.624;2023-03-23T03:16:54;12.10;99.90
51011;DHT22;37038;50.182;8.624;2023-03-23T03:19:50;12.00;99.90
51011;DHT22;37038;50.182;8.624;2023-03-23T03:22:45;12.00;99.90
51011;DHT22;37038;50.182;8.624;2023-03-23T03:25:34;12.00;99.90
51011;DHT22;37038;50.182;8.624;2023-03-23T03:28:21;12.10;99.90
51011;DHT22;37038;50.182;8.624;2023-03-23T03:31:09;12.10;99.90
51011;DHT22;37038;50.182;8.624;2023-03-23T03:33:58;12.00;99.90
51011;DHT22;37038;50.182;8.624;2023-03-23T03:36:48;12.00;99.90
51011;DHT22;37038;50.182;8.624;2023-03-23T03:39:36;11.90;99.90
51011;DHT22;37038;50.182;8.624;2023-03-23T03:42:24;11.90;99.90
51011;DHT22;37038;50.182;8.624;2023-03-23T03:45:14;11.80;99.90
51011;DHT22;37038;50.182;8.624;2023-03-23T03:48:02;11.70;99.90
51011;DHT22;37038;50.182;8.624;2023-03-23T03:50:49;11.80;99.90
51011;DHT22;37038;50.182;8.624;2023-03-23T03:53:38;11.80;99.90
51011;DHT22;37038;50.182;8.624;2023-03-23T03:56:25;11.80;99.90
51011;DHT22;37038;50.182;8.624;2023-03-23T03:59:13;12.00;99.90
51011;DHT22;37038;50.182;8.624;2023-03-23T04:02:00;12.00;99.90
51011;DHT22;37038;50.182;8.624;2023-03-23T04:04:47;12.10;99.90
51011;DHT22;37038;50.182;8.624;2023-03-23T04:07:36;12.40;99.90
51011;DHT22;37038;50.182;8.624;2023-03-23T04:10:24;12.50;99.90
51011;DHT22;37038;50.182;8.624;2023-03-23T04:15:54;12.50;99.90
51011;DHT22;37038;50.182;8.624;2023-03-23T04:18:41;12.60;99.90
51011;DHT22;37038;50.182;8.624;2023-03-23T04:21:29;12.50;99.90
51011;DHT22;37038;50.182;8.624;2023-03-23T04:24:16;12.50;99.90
51011;DHT22;37038;50.182;8.624;2023-03-23T04:27:03;12.40;99.90
51011;DHT22;37038;50.182;8.624;2023-03-23T04:29:50;12.40;99.90
51011;DHT22;37038;50.182;8.624;2023-03-23T04:32:37;12.50;99.90
51011;DHT22;37038;50.182;8.624;2023-03-23T04:35:28;12.50;99.90
51011;DHT22;37038;50.182;8.624;2023-03-23T04:38:16;12.50;99.90
51011;DHT22;37038;50.182;8.624;2023-03-23T04:41:06;12.40;99.90
51011;DHT22;37038;50.182;8.624;2023-03-23T04:43:53;12.40;99.90
51011;DHT22;37038;50.182;8.624;2023-03-23T04:46:44;12.40;99.90
51011;DHT22;37038;50.182;8.624;2023-03-23T04:49:31;12.30;99.90
51011;DHT22;37038;50.182;8.624;2023-03-23T04:52:18;12.30;99.90
51011;DHT22;37038;50.182;8.624;2023-03-23T04:55:08;12.30;99.90
51011;DHT22;37038;50.182;8.624;2023-03-23T04:57:58;12.40;99.90
51011;DHT22;37038;50.182;8.624;2023-03-23T05:00:49;12.50;99.90
51011;DHT22;37038;50.182;8.624;2023-03-23T05:03:36;12.50;99.90
51011;DHT22;37038;50.182;8.624;2023-03-23T05:06:22;12.50;99.90
51011;DHT22;37038;50.182;8.624;2023-03-23T05:09:09;12.70;99.90
51011;DHT22;37038;50.182;8.624;2023-03-23T05:11:56;12.70;99.90
51011;DHT22;37038;50.182;8.624;2023-03-23T05:14:45;12.80;99.90
51011;DHT22;37038;50.182;8.624;2023-03-23T05:17:33;12.80;99.90
51011;DHT22;37038;50.182;8.624;2023-03-23T05:20:20;12.80;99.90
51011;DHT22;37038;50.182;8.624;2023-03-23T05:23:08;12.80;99.90
51011;DHT22;37038;50.182;8.624;2023-03-23T05:25:57;12.80;99.90
51011;DHT22;37038;50.182;8.624;2023-03-23T05:28:49;12.70;99.90
51011;DHT22;37038;50.182;8.624;2023-03-23T05:31:38;12.80;99.90
51011;DHT22;37038;50.182;8.624;2023-03-23T05:34:26;12.70;99.90
51011;DHT22;37038;50.182;8.624;2023-03-23T05:37:13;12.70;99.90
51011;DHT22;37038;50.182;8.624;2023-03-23T05:40:00;12.70;99.90
51011;DHT22;37038;50.182;8.624;2023-03-23T05:42:51;12.60;99.90
51011;DHT22;37038;50.182;8.624;2023-03-23T05:45:38;12.60;99.90
51011;DHT22;37038;50.182;8.624;2023-03-23T05:48:25;12.50;99.90
51011;DHT22;37038;50.182;8.624;2023-03-23T05:51:12;12.50;99.90
51011;DHT22;37038;50.182;8.624;2023-03-23T05:53:59;12.50;99.90
51011;DHT22;37038;50.182;8.624;2023-03-23T05:56:46;12.30;99.90
51011;DHT22;37038;50.182;8.624;2023-03-23T05:59:35;12.20;99.90
51011;DHT22;37038;50.182;8.624;2023-03-23T06:02:22;12.20;99.90
51011;DHT22;37038;50.182;8.624;2023-03-23T06:05:10;12.30;99.90
51011;DHT22;37038;50.182;8.624;2023-03-23T06:07:58;12.30;99.90
51011;DHT22;37038;50.182;8.624;2023-03-23T06:10:45;12.30;99.90
51011;DHT22;37038;50.182;8.624;2023-03-23T06:13:32;12.30;99.90
51011;DHT22;37038;50.182;8.624;2023-03-23T06:16:19;12.40;99.90
51011;DHT22;37038;50.182;8.624;2023-03-23T06:19:06;12.30;99.90
51011;DHT22;37038;50.182;8.624;2023-03-23T06:21:56;12.40;99.90
51011;DHT22;37038;50.182;8.624;2023-03-23T06:24:43;12.30;99.90
51011;DHT22;37038;50.182;8.624;2023-03-23T06:27:30;12.20;99.90
51011;DHT22;37038;50.182;8.624;2023-03-23T06:30:18;12.30;99.90
51011;DHT22;37038;50.182;8.624;2023-03-23T06:33:05;12.20;99.90
51011;DHT22;37038;50.182;8.624;2023-03-23T06:35:51;12.20;99.90
51011;DHT22;37038;50.182;8.624;2023-03-23T06:38:38;12.20;99.90
51011;DHT22;37038;50.182;8.624;2023-03-23T06:41:25;12.20;99.90
51011;DHT22;37038;50.182;8.624;2023-03-23T06:44:12;12.30;99.90
51011;DHT22;37038;50.182;8.624;2023-03-23T06:46:59;12.30;99.90
51011;DHT22;37038;50.182;8.624;2023-03-23T06:49:48;12.40;99.90
51011;DHT22;37038;50.182;8.624;2023-03-23T06:52:35;12.40;99.90
51011;DHT22;37038;50.182;8.624;2023-03-23T06:55:22;12.40;99.90
51011;DHT22;37038;50.182;8.624;2023-03-23T06:58:09;12.40;99.90
51011;DHT22;37038;50.182;8.624;2023-03-23T07:00:57;12.50;99.90
51011;DHT22;37038;50.182;8.624;2023-03-23T07:03:45;12.50;99.90
51011;DHT22;37038;50.182;8.624;2023-03-23T07:06:34;12.50;99.90
51011;DHT22;37038;50.182;8.624;2023-03-23T07:09:24;12.50;99.90
51011;DHT22;37038;50.182;8.624;2023-03-23T07:12:29;12.40;99.90
51011;DHT22;37038;50.182;8.624;2023-03-23T07:15:38;12.40;99.90
51011;DHT22;37038;50.182;8.624;2023-03-23T07:18:29;12.40;99.90
51011;DHT22;37038;50.182;8.624;2023-03-23T07:21:16;12.30;99.90
51011;DHT22;37038;50.182;8.624;2023-03-23T07:24:03;12.20;99.90
51011;DHT22;37038;50.182;8.624;2023-03-23T07:26:54;12.10;99.90
51011;DHT22;37038;50.182;8.624;2023-03-23T07:29:40;12.10;99.90
51011;DHT22;37038;50.182;8.624;2023-03-23T07:32:27;12.20;99.90
51011;DHT22;37038;50.182;8.624;2023-03-23T07:35:14;12.20;99.90
51011;DHT22;37038;50.182;8.624;2023-03-23T07:41:51;12.20;99.90
51011;DHT22;37038;50.182;8.624;2023-03-23T07:44:38;12.30;99.90
51011;DHT22;37038;50.182;8.624;2023-03-23T07:47:25;12.40;99.90
51011;DHT22;37038;50.182;8.624;2023-03-23T07:50:12;12.30;99.90
51011;DHT22;37038;50.182;8.624;2023-03-23T07:53:00;12.40;99.90
51011;DHT22;37038;50.182;8.624;2023-03-23T07:55:47;12.40;99.90
51011;DHT22;37038;50.182;8.624;2023-03-23T07:58:34;12.30;99.90
51011;DHT22;37038;50.182;8.624;2023-03-23T08:01:21;12.30;99.90
51011;DHT22;37038;50.182;8.624;2023-03-23T08:04:10;12.40;99.90
51011;DHT22;37038;50.182;8.624;2023-03-23T08:06:57;12.40;99.90
51011;DHT22;37038;50.182;8.624;2023-03-23T08:09:44;12.40;99.90
51011;DHT22;37038;50.182;8.624;2023-03-23T08:12:31;12.40;99.90
51011;DHT22;37038;50.182;8.624;2023-03-23T08:15:18;12.40;99.90
51011;DHT22;37038;50.182;8.624;2023-03-23T08:18:05;12.40;99.90
51011;DHT22;37038;50.182;8.624;2023-03-23T08:20:52;12.40;99.90
51011;DHT22;37038;50.182;8.624;2023-03-23T08:23:39;12.50;99.90
51011;DHT22;37038;50.182;8.624;2023-03-23T08:26:29;12.40;99.90
51011;DHT22;37038;50.182;8.624;2023-03-23T08:29:15;12.50;99.90
51011;DHT22;37038;50.182;8.624;2023-03-23T08:32:03;12.50;99.90
51011;DHT22;37038;50.182;8.624;2023-03-23T08:34:50;12.50;99.90
51011;DHT22;37038;50.182;8.624;2023-03-23T08:37:38;12.50;99.90
51011;DHT22;37038;50.182;8.624;2023-03-23T08:40:25;12.60;99.90
51011;DHT22;37038;50.182;8.624;2023-03-23T08:43:12;12.60;99.90
51011;DHT22;37038;50.182;8.624;2023-03-23T08:46:00;12.70;99.90
51011;DHT22;37038;50.182;8.624;2023-03-23T08:48:52;12.80;99.90
51011;DHT22;37038;50.182;8.624;2023-03-23T08:51:40;12.80;99.90
51011;DHT22;37038;50.182;8.624;2023-03-23T08:54:28;12.90;99.90
51011;DHT22;37038;50.182;8.624;2023-03-23T08:57:16;12.90;99.90
51011;DHT22;37038;50.182;8.624;2023-03-23T09:00:07;12.90;99.90
51011;DHT22;37038;50.182;8.624;2023-03-23T09:03:04;13.00;99.90
51011;DHT22;37038;50.182;8.624;2023-03-23T09:05:51;13.00;99.90
51011;DHT22;37038;50.182;8.624;2023-03-23T09:08:39;13.30;99.90
51011;DHT22;37038;50.182;8.624;2023-03-23T09:11:26;13.20;99.90
51011;DHT22;37038;50.182;8.624;2023-03-23T09:14:13;13.20;99.90
51011;DHT22;37038;50.182;8.624;2023-03-23T09:17:02;13.30;99.90
51011;DHT22;37038;50.182;8.624;2023-03-23T09:19:49;13.30;99.90
51011;DHT22;37038;50.182;8.624;2023-03-23T09:22:48;13.40;99.90
51011;DHT22;37038;50.182;8.624;2023-03-23T09:25:37;13.30;99.90
51011;DHT22;37038;50.182;8.624;2023-03-23T09:28:24;13.60;99.90
51011;DHT22;37038;50.182;8.624;2023-03-23T09:31:11;13.60;99.90
51011;DHT22;37038;50.182;8.624;2023-03-23T09:33:59;13.80;99.90
51011;DHT22;37038;50.182;8.624;2023-03-23T09:36:47;13.60;99.90
51011;DHT22;37038;50.182;8.624;2023-03-23T09:39:35;13.50;99.90
51011;DHT22;37038;50.182;8.624;2023-03-23T09:42:31;13.70;99.90
51011;DHT22;37038;50.182;8.624;2023-03-23T09:48:44;14.10;99.90
51011;DHT22;37038;50.182;8.624;2023-03-23T09:54:48;14.50;99.90
51011;DHT22;37038;50.182;8.624;2023-03-23T09:58:07;14.50;99.90
51011;DHT22;37038;50.182;8.624;2023-03-23T10:01:04;14.30;99.90
51011;DHT22;37038;50.182;8.624;2023-03-23T10:04:03;14.40;99.90
51011;DHT22;37038;50.182;8.624;2023-03-23T10:07:08;14.10;99.90
51011;DHT22;37038;50.182;8.624;2023-03-23T10:10:01;14.00;99.90
51011;DHT22;37038;50.182;8.624;2023-03-23T10:12:54;13.90;99.90
51011;DHT22;37038;50.182;8.624;2023-03-23T10:15:46;13.90;99.90
51011;DHT22;37038;50.182;8.624;2023-03-23T10:18:41;14.00;99.90
51011;DHT22;37038;50.182;8.624;2023-03-23T10:21:33;13.90;99.90
51011;DHT22;37038;50.182;8.624;2023-03-23T10:24:43;13.80;99.90
51011;DHT22;37038;50.182;8.624;2023-03-23T10:28:00;13.90;99.90
51011;DHT22;37038;50.182;8.624;2023-03-23T10:30:56;13.80;99.90
51011;DHT22;37038;50.182;8.624;2023-03-23T10:33:49;13.90;99.90
51011;DHT22;37038;50.182;8.624;2023-03-23T10:36:48;14.00;99.90
51011;DHT22;37038;50.182;8.624;2023-03-23T10:39:53;13.90;99.90
51011;DHT22;37038;50.182;8.624;2023-03-23T10:42:35;14.00;99.90
51011;DHT22;37038;50.182;8.624;2023-03-23T10:45:30;14.10;99.90
51011;DHT22;37038;50.182;8.624;2023-03-23T10:48:29;14.40;99.90
51011;DHT22;37038;50.182;8.624;2023-03-23T10:51:22;14.60;99.90
51011;DHT22;37038;50.182;8.624;2023-03-23T10:54:24;14.80;99.90
51011;DHT22;37038;50.182;8.624;2023-03-23T10:57:28;15.20;99.90
51011;DHT22;37038;50.182;8.624;2023-03-23T11:00:25;14.70;99.90
51011;DHT22;37038;50.182;8.624;2023-03-23T11:06:05;14.30;99.90
51011;DHT22;37038;50.182;8.624;2023-03-23T11:08:57;14.10;99.90
51011;DHT22;37038;50.182;8.624;2023-03-23T11:11:52;14.20;99.90
51011;DHT22;37038;50.182;8.624;2023-03-23T11:14:40;13.90;99.90
51011;DHT22;37038;50.182;8.624;2023-03-23T11:17:28;13.80;99.90
51011;DHT22;37038;50.182;8.624;2023-03-23T11:20:19;13.70;99.90
51011;DHT22;37038;50.182;8.624;2023-03-23T11:23:21;13.80;99.90
51011;DHT22;37038;50.182;8.624;2023-03-23T11:29:22;14.10;99.90
51011;DHT22;37038;50.182;8.624;2023-03-23T11:32:12;14.30;99.90
51011;DHT22;37038;50.182;8.624;2023-03-23T11:35:03;15.00;99.90
51011;DHT22;37038;50.182;8.624;2023-03-23T11:37:57;15.60;99.90
51011;DHT22;37038;50.182;8.624;2023-03-23T11:40:49;15.30;99.90
51011;DHT22;37038;50.182;8.624;2023-03-23T11:43:40;15.50;99.90
51011;DHT22;37038;50.182;8.624;2023-03-23T11:50:19;15.80;99.90
51011;DHT22;37038;50.182;8.624;2023-03-23T11:56:30;15.40;99.90
51011;DHT22;37038;50.182;8.624;2023-03-23T11:59:33;16.00;99.90
51011;DHT22;37038;50.182;8.624;2023-03-23T12:05:46;14.90;99.90
51011;DHT22;37038;50.182;8.624;2023-03-23T12:09:16;14.90;99.90
51011;DHT22;37038;50.182;8.624;2023-03-23T12:22:47;14.60;99.90
51011;DHT22;37038;50.182;8.624;2023-03-23T12:35:52;15.00;99.90
51011;DHT22;37038;50.182;8.624;2023-03-23T12:39:59;15.50;99.90
51011;DHT22;37038;50.182;8.624;2023-03-23T12:48:27;15.30;99.90
51011;DHT22;37038;50.182;8.624;2023-03-23T12:52:13;15.30;99.90
51011;DHT22;37038;50.182;8.624;2023-03-23T12:55:46;15.30;99.90
51011;DHT22;37038;50.182;8.624;2023-03-23T12:58:41;15.30;99.90
51011;DHT22;37038;50.182;8.624;2023-03-23T13:01:42;15.50;99.90
51011;DHT22;37038;50.182;8.624;2023-03-23T13:04:36;15.20;99.90
51011;DHT22;37038;50.182;8.624;2023-03-23T13:07:31;15.40;99.90
51011;DHT22;37038;50.182;8.624;2023-03-23T13:10:26;15.20;99.90
51011;DHT22;37038;50.182;8.624;2023-03-23T13:22:19;14.80;99.90
51011;DHT22;37038;50.182;8.624;2023-03-23T13:25:15;15.40;99.90
51011;DHT22;37038;50.182;8.624;2023-03-23T13:28:05;15.50;99.90
51011;DHT22;37038;50.182;8.624;2023-03-23T13:31:22;16.10;99.90
51011;DHT22;37038;50.182;8.624;2023-03-23T13:37:19;16.20;99.90
51011;DHT22;37038;50.182;8.624;2023-03-23T13:42:59;16.00;99.90
51011;DHT22;37038;50.182;8.624;2023-03-23T13:45:48;16.00;99.90
51011;DHT22;37038;50.182;8.624;2023-03-23T13:48:44;16.30;99.90
51011;DHT22;37038;50.182;8.624;2023-03-23T13:52:00;16.00;99.90
51011;DHT22;37038;50.182;8.624;2023-03-23T14:01:01;16.20;99.90
51011;DHT22;37038;50.182;8.624;2023-03-23T14:03:54;15.80;99.90
51011;DHT22;37038;50.182;8.624;2023-03-23T14:06:43;15.80;99.90
51011;DHT22;37038;50.182;8.624;2023-03-23T14:09:36;15.70;99.90
51011;DHT22;37038;50.182;8.624;2023-03-23T14:12:28;15.40;99.90
51011;DHT22;37038;50.182;8.624;2023-03-23T14:15:19;15.40;99.90
51011;DHT22;37038;50.182;8.624;2023-03-23T14:18:11;15.10;99.90
51011;DHT22;37038;50.182;8.624;2023-03-23T14:21:02;15.00;99.90
51011;DHT22;37038;50.182;8.624;2023-03-23T14:23:50;14.90;99.90
51011;DHT22;37038;50.182;8.624;2023-03-23T14:26:37;14.80;99.90
51011;DHT22;37038;50.182;8.624;2023-03-23T14:29:25;14.70;99.90
51011;DHT22;37038;50.182;8.624;2023-03-23T14:32:17;14.70;99.90
51011;DHT22;37038;50.182;8.624;2023-03-23T14:35:13;14.70;99.90
51011;DHT22;37038;50.182;8.624;2023-03-23T14:38:16;14.60;99.90
51011;DHT22;37038;50.182;8.624;2023-03-23T14:41:06;14.50;99.90
51011;DHT22;37038;50.182;8.624;2023-03-23T14:43:59;14.40;99.90
51011;DHT22;37038;50.182;8.624;2023-03-23T14:46:47;14.40;99.90
51011;DHT22;37038;50.182;8.624;2023-03-23T14:49:40;14.40;99.90
51011;DHT22;37038;50.182;8.624;2023-03-23T14:52:32;14.60;99.90
51011;DHT22;37038;50.182;8.624;2023-03-23T14:55:22;14.60;99.90
51011;DHT22;37038;50.182;8.624;2023-03-23T14:58:13;14.70;99.90
51011;DHT22;37038;50.182;8.624;2023-03-23T15:01:08;14.80;99.90
51011;DHT22;37038;50.182;8.624;2023-03-23T15:04:05;15.10;99.90
51011;DHT22;37038;50.182;8.624;2023-03-23T15:07:00;15.10;99.90
51011;DHT22;37038;50.182;8.624;2023-03-23T15:09:48;15.20;99.90
51011;DHT22;37038;50.182;8.624;2023-03-23T15:12:35;15.20;99.90
51011;DHT22;37038;50.182;8.624;2023-03-23T15:15:31;15.20;99.90
51011;DHT22;37038;50.182;8.624;2023-03-23T15:18:35;15.10;99.90
51011;DHT22;37038;50.182;8.624;2023-03-23T15:21:32;15.30;99.90
51011;DHT22;37038;50.182;8.624;2023-03-23T15:24:40;15.50;99.90
51011;DHT22;37038;50.182;8.624;2023-03-23T15:27:34;15.50;99.90
51011;DHT22;37038;50.182;8.624;2023-03-23T15:30:33;15.50;99.90
51011;DHT22;37038;50.182;8.624;2023-03-23T15:33:22;15.60;99.90
51011;DHT22;37038;50.182;8.624;2023-03-23T15:36:17;15.30;99.90
51011;DHT22;37038;50.182;8.624;2023-03-23T15:39:11;15.20;99.90
51011;DHT22;37038;50.182;8.624;2023-03-23T15:42:00;15.10;99.90
51011;DHT22;37038;50.182;8.624;2023-03-23T15:45:37;15.20;99.90
51011;DHT22;37038;50.182;8.624;2023-03-23T15:48:13;15.10;99.90
51011;DHT22;37038;50.182;8.624;2023-03-23T15:51:02;14.90;99.90
51011;DHT22;37038;50.182;8.624;2023-03-23T15:53:51;14.90;99.90
51011;DHT22;37038;50.182;8.624;2023-03-23T15:56:38;15.00;99.90
51011;DHT22;37038;50.182;8.624;2023-03-23T15:59:26;15.00;99.90
51011;DHT22;37038;50.182;8.624;2023-03-23T16:02:19;15.00;99.90
51011;DHT22;37038;50.182;8.624;2023-03-23T16:05:11;14.80;99.90
51011;DHT22;37038;50.182;8.624;2023-03-23T16:08:00;14.90;99.90
51011;DHT22;37038;50.182;8.624;2023-03-23T16:10:49;14.70;99.90
51011;DHT22;37038;50.182;8.624;2023-03-23T16:13:37;14.70;99.90
51011;DHT22;37038;50.182;8.624;2023-03-23T16:19:24;14.60;99.90
51011;DHT22;37038;50.182;8.624;2023-03-23T16:22:12;14.60;99.90
51011;DHT22;37038;50.182;8.624;2023-03-23T16:25:02;14.50;99.90
51011;DHT22;37038;50.182;8.624;2023-03-23T16:27:52;14.40;99.90
51011;DHT22;37038;50.182;8.624;2023-03-23T16:30:42;14.30;99.90
51011;DHT22;37038;50.182;8.624;2023-03-23T16:33:31;14.30;99.90
51011;DHT22;37038;50.182;8.624;2023-03-23T16:36:19;14.30;99.90
51011;DHT22;37038;50.182;8.624;2023-03-23T16:39:10;14.00;99.90
51011;DHT22;37038;50.182;8.624;2023-03-23T16:41:58;13.80;99.90
51011;DHT22;37038;50.182;8.624;2023-03-23T16:44:47;13.70;99.90
51011;DHT22;37038;50.182;8.624;2023-03-23T16:47:37;13.60;99.90
51011;DHT22;37038;50.182;8.624;2023-03-23T16:50:28;13.50;99.90
51011;DHT22;37038;50.182;8.624;2023-03-23T16:53:17;13.50;99.90
51011;DHT22;37038;50.182;8.624;2023-03-23T16:56:05;13.50;99.90
51011;DHT22;37038;50.182;8.624;2023-03-23T16:58:54;13.40;99.90
51011;DHT22;37038;50.182;8.624;2023-03-23T17:01:42;13.40;99.90
51011;DHT22;37038;50.182;8.624;2023-03-23T17:04:33;13.40;99.90
51011;DHT22;37038;50.182;8.624;2023-03-23T17:07:21;13.20;99.90
51011;DHT22;37038;50.182;8.624;2023-03-23T17:10:10;13.20;99.90
51011;DHT22;37038;50.182;8.624;2023-03-23T17:12:59;13.20;99.90
51011;DHT22;37038;50.182;8.624;2023-03-23T17:15:51;13.20;99.90
51011;DHT22;37038;50.182;8.624;2023-03-23T17:18:40;13.20;99.90
51011;DHT22;37038;50.182;8.624;2023-03-23T17:21:28;13.20;99.90
51011;DHT22;37038;50.182;8.624;2023-03-23T17:24:17;13.20;99.90
51011;DHT22;37038;50.182;8.624;2023-03-23T17:27:05;13.10;99.90
51011;DHT22;37038;50.182;8.624;2023-03-23T17:29:53;13.20;99.90
51011;DHT22;37038;50.182;8.624;2023-03-23T17:32:41;13.10;99.90
51011;DHT22;37038;50.182;8.624;2023-03-23T17:35:29;13.10;99.90
51011;DHT22;37038;50.182;8.624;2023-03-23T17:38:17;13.10;99.90
51011;DHT22;37038;50.182;8.624;2023-03-23T17:41:05;13.20;99.90
51011;DHT22;37038;50.182;8.624;2023-03-23T17:43:54;13.20;99.90
51011;DHT22;37038;50.182;8.624;2023-03-23T17:46:42;13.20;99.90
51011;DHT22;37038;50.182;8.624;2023-03-23T17:49:30;13.20;99.90
51011;DHT22;37038;50.182;8.624;2023-03-23T17:52:18;13.20;99.90
51011;DHT22;37038;50.182;8.624;2023-03-23T17:55:06;13.30;99.90
51011;DHT22;37038;50.182;8.624;2023-03-23T17:57:55;13.30;99.90
51011;DHT22;37038;50.182;8.624;2023-03-23T18:00:42;13.20;99.90
51011;DHT22;37038;50.182;8.624;2023-03-23T18:03:31;13.20;99.90
51011;DHT22;37038;50.182;8.624;2023-03-23T18:06:19;13.10;99.90
51011;DHT22;37038;50.182;8.624;2023-03-23T18:09:07;13.10;99.90
51011;DHT22;37038;50.182;8.624;2023-03-23T18:11:55;13.10;99.90
51011;DHT22;37038;50.182;8.624;2023-03-23T18:14:43;13.00;99.90
51011;DHT22;37038;50.182;8.624;2023-03-23T18:17:34;13.00;99.90
51011;DHT22;37038;50.182;8.624;2023-03-23T18:20:22;13.00;99.90
51011;DHT22;37038;50.182;8.624;2023-03-23T18:23:10;13.00;99.90
51011;DHT22;37038;50.182;8.624;2023-03-23T18:25:58;12.90;99.90
51011;DHT22;37038;50.182;8.624;2023-03-23T18:28:48;13.00;99.90
51011;DHT22;37038;50.182;8.624;2023-03-23T18:31:37;12.90;99.90
51011;DHT22;37038;50.182;8.624;2023-03-23T18:34:26;13.00;99.90
51011;DHT22;37038;50.182;8.624;2023-03-23T18:37:14;12.90;99.90
51011;DHT22;37038;50.182;8.624;2023-03-23T18:40:02;12.90;99.90
51011;DHT22;37038;50.182;8.624;2023-03-23T18:42:52;12.90;99.90
51011;DHT22;37038;50.182;8.624;2023-03-23T18:45:39;13.00;99.90
51011;DHT22;37038;50.182;8.624;2023-03-23T18:48:28;13.00;99.90
51011;DHT22;37038;50.182;8.624;2023-03-23T18:51:16;13.00;99.90
51011;DHT22;37038;50.182;8.624;2023-03-23T18:54:04;13.00;99.90
51011;DHT22;37038;50.182;8.624;2023-03-23T18:56:52;13.00;99.90
51011;DHT22;37038;50.182;8.624;2023-03-23T18:59:40;13.00;99.90
51011;DHT22;37038;50.182;8.624;2023-03-23T19:02:28;13.10;99.90
51011;DHT22;37038;50.182;8.624;2023-03-23T19:05:16;12.90;99.90
51011;DHT22;37038;50.182;8.624;2023-03-23T19:08:06;13.00;99.90
51011;DHT22;37038;50.182;8.624;2023-03-23T19:11:00;12.90;99.90
51011;DHT22;37038;50.182;8.624;2023-03-23T19:13:50;12.80;99.90
51011;DHT22;37038;50.182;8.624;2023-03-23T19:16:49;12.90;99.90
51011;DHT22;37038;50.182;8.624;2023-03-23T19:19:38;13.00;99.90
51011;DHT22;37038;50.182;8.624;2023-03-23T19:22:30;13.00;99.90
51011;DHT22;37038;50.182;8.624;2023-03-23T19:25:18;13.10;99.90
51011;DHT22;37038;50.182;8.624;2023-03-23T19:28:06;13.10;99.90
51011;DHT22;37038;50.182;8.624;2023-03-23T19:30:57;13.20;99.90
51011;DHT22;37038;50.182;8.624;2023-03-23T19:33:45;13.30;99.90